createdAt,value
2023-01-18T00:01:05.462Z,29.13
2023-01-18T00:03:36.219Z,17.70
2023-01-18T00:06:08.951Z,20.73
2023-01-18T00:08:43.356Z,25.60
2023-01-18T00:11:17.029Z,24.70
2023-01-18T00:13:47.483Z,22.93
2023-01-18T00:16:20.278Z,16.83
2023-01-18T00:18:55.011Z,23.73
2023-01-18T00:21:26.927Z,28.20
2023-01-18T00:24:00.175Z,31.63
2023-01-18T00:26:30.195Z,26.00
2023-01-18T00:29:00.161Z,22.33
2023-01-18T00:31:30.813Z,19.07
2023-01-18T00:34:00.829Z,24.97
2023-01-18T00:36:32.052Z,20.07
2023-01-18T00:39:04.652Z,18.63
2023-01-18T00:41:34.670Z,28.00
2023-01-18T00:44:02.120Z,24.80
2023-01-18T00:46:32.378Z,23.00
2023-01-18T00:49:02.319Z,23.50
2023-01-18T00:51:32.329Z,27.70
2023-01-18T00:54:04.944Z,23.70
2023-01-18T00:56:34.970Z,26.13
2023-01-18T00:59:04.973Z,31.23
2023-01-18T01:01:35.121Z,32.57
2023-01-18T01:04:17.714Z,32.90
2023-01-18T01:06:47.906Z,27.93
2023-01-18T01:09:24.649Z,25.87
2023-01-18T01:12:08.996Z,30.33
2023-01-18T01:14:54.849Z,33.80
2023-01-18T01:17:37.675Z,29.13
2023-01-18T01:20:22.826Z,22.77
2023-01-18T01:23:05.539Z,25.83
2023-01-18T01:25:52.004Z,24.70
2023-01-18T01:28:22.045Z,22.47
2023-01-18T01:30:52.205Z,25.80
2023-01-18T01:33:22.251Z,28.77
2023-01-18T01:35:52.472Z,24.53
2023-01-18T01:38:22.472Z,29.70
2023-01-18T01:41:04.558Z,26.23
2023-01-18T01:43:49.758Z,24.23
2023-01-18T01:46:44.782Z,27.27
2023-01-18T01:49:22.127Z,28.20
2023-01-18T01:51:58.282Z,24.57
2023-01-18T01:54:34.723Z,23.33
2023-01-18T01:57:12.932Z,27.17
2023-01-18T01:59:51.774Z,24.83
2023-01-18T02:02:22.260Z,21.43
2023-01-18T02:04:54.321Z,28.80
2023-01-18T02:07:26.348Z,22.37
2023-01-18T02:09:58.073Z,27.23
2023-01-18T02:12:33.067Z,22.23
2023-01-18T02:15:03.810Z,25.87
2023-01-18T02:17:54.076Z,28.60
2023-01-18T02:21:12.137Z,24.37
2023-01-18T02:24:40.612Z,30.60
2023-01-18T02:27:23.798Z,21.90
2023-01-18T02:30:17.995Z,23.77
2023-01-18T02:33:05.861Z,30.30
2023-01-18T02:35:53.415Z,29.17
2023-01-18T02:38:29.177Z,30.90
2023-01-18T02:41:19.568Z,33.87
2023-01-18T02:44:08.756Z,26.27
2023-01-18T02:46:42.439Z,37.67
2023-01-18T02:49:21.060Z,35.50
2023-01-18T02:51:51.144Z,35.70
2023-01-18T02:54:24.962Z,34.90
2023-01-18T02:56:57.467Z,32.37
2023-01-18T02:59:38.030Z,38.87
2023-01-18T03:02:17.777Z,34.50
2023-01-18T03:04:56.894Z,38.90
2023-01-18T03:07:33.384Z,48.10
2023-01-18T03:10:09.315Z,31.50
2023-01-18T03:12:52.251Z,35.80
2023-01-18T03:15:29.648Z,43.07
2023-01-18T03:18:11.863Z,40.63
2023-01-18T03:20:49.509Z,35.53
2023-01-18T03:23:35.721Z,27.17
2023-01-18T03:26:09.459Z,45.30
2023-01-18T03:28:55.902Z,38.73
2023-01-18T03:31:48.807Z,40.27
2023-01-18T03:34:30.263Z,41.60
2023-01-18T03:37:05.871Z,35.20
2023-01-18T03:39:44.019Z,31.50
2023-01-18T03:42:20.442Z,43.13
2023-01-18T03:44:57.507Z,36.80
2023-01-18T03:47:28.200Z,40.50
2023-01-18T03:50:00.870Z,35.37
2023-01-18T03:52:41.857Z,33.10
2023-01-18T03:55:20.545Z,36.07
2023-01-18T03:57:57.869Z,35.40
2023-01-18T04:00:28.345Z,36.07
2023-01-18T04:02:58.752Z,29.73
2023-01-18T04:05:31.779Z,31.73
2023-01-18T04:08:01.724Z,32.57
2023-01-18T04:10:32.001Z,34.63
2023-01-18T04:13:02.356Z,33.83
2023-01-18T04:15:32.372Z,32.17
2023-01-18T04:18:02.355Z,24.00
2023-01-18T04:20:35.139Z,33.93
2023-01-18T04:23:05.197Z,27.87
2023-01-18T04:25:35.238Z,27.40
2023-01-18T04:28:05.373Z,28.40
2023-01-18T04:30:35.487Z,21.33
2023-01-18T04:33:05.461Z,29.33
2023-01-18T04:35:38.001Z,30.53
2023-01-18T04:38:08.013Z,38.17
2023-01-18T04:40:38.004Z,33.83
2023-01-18T04:43:08.016Z,28.77
2023-01-18T04:45:38.318Z,30.97
2023-01-18T04:48:09.250Z,24.97
2023-01-18T04:50:46.618Z,33.53
2023-01-18T04:53:16.772Z,29.37
2023-01-18T04:55:47.075Z,24.77
2023-01-18T04:58:17.173Z,35.67
2023-01-18T05:00:47.327Z,32.47
2023-01-18T05:03:17.386Z,40.73
2023-01-18T05:05:49.917Z,37.73
2023-01-18T05:08:19.894Z,35.83
2023-01-18T05:10:50.575Z,33.90
2023-01-18T05:13:20.590Z,32.47
2023-01-18T05:15:51.207Z,28.73
2023-01-18T05:18:21.209Z,34.07
2023-01-18T05:20:54.390Z,33.53
2023-01-18T05:23:25.055Z,37.57
2023-01-18T05:26:00.458Z,34.60
2023-01-18T05:28:31.223Z,31.87
2023-01-18T05:31:01.214Z,38.47
2023-01-18T05:33:31.225Z,40.57
2023-01-18T05:36:03.795Z,29.17
2023-01-18T05:38:33.971Z,31.97
2023-01-18T05:41:04.054Z,41.17
2023-01-18T05:43:35.789Z,34.00
2023-01-18T05:46:06.317Z,30.23
2023-01-18T05:48:36.499Z,38.13
2023-01-18T05:51:13.927Z,27.67
2023-01-18T05:53:44.011Z,26.73
2023-01-18T05:56:14.101Z,25.80
2023-01-18T05:58:44.160Z,27.63
2023-01-18T06:01:14.230Z,25.63
2023-01-18T06:03:44.257Z,31.03
2023-01-18T06:06:16.855Z,22.97
2023-01-18T06:08:50.380Z,30.63
2023-01-18T06:11:20.692Z,20.50
2023-01-18T06:13:50.885Z,18.80
2023-01-18T06:16:21.062Z,14.30
2023-01-18T06:18:51.066Z,17.97
2023-01-18T06:21:23.735Z,24.03
2023-01-18T06:23:53.961Z,19.40
2023-01-18T06:26:24.057Z,20.13
2023-01-18T06:28:54.042Z,15.90
2023-01-18T06:31:24.042Z,15.27
2023-01-18T06:33:54.076Z,14.10
2023-01-18T06:36:28.126Z,20.40
2023-01-18T06:38:58.097Z,20.57
2023-01-18T06:41:29.410Z,20.57
2023-01-18T06:43:59.637Z,18.83
2023-01-18T06:46:29.718Z,20.97
2023-01-18T06:48:59.818Z,25.83
2023-01-18T06:51:32.568Z,21.03
2023-01-18T06:54:02.820Z,28.80
2023-01-18T06:56:32.974Z,23.60
2023-01-18T06:59:03.314Z,22.20
2023-01-18T07:01:33.560Z,26.63
2023-01-18T07:04:03.843Z,24.80
2023-01-18T07:06:37.722Z,24.43
2023-01-18T07:09:09.648Z,19.73
2023-01-18T07:11:43.239Z,24.13
2023-01-18T07:14:14.339Z,23.87
2023-01-18T07:16:44.557Z,21.97
2023-01-18T07:19:16.402Z,25.07
2023-01-18T07:21:49.819Z,20.00
2023-01-18T07:24:20.439Z,22.07
2023-01-18T07:26:50.598Z,21.30
2023-01-18T07:29:20.599Z,21.00
2023-01-18T07:31:51.652Z,19.43
2023-01-18T07:34:21.762Z,21.37
2023-01-18T07:36:55.135Z,22.37
2023-01-18T07:39:25.353Z,27.03
2023-01-18T07:41:55.341Z,21.10
2023-01-18T07:44:26.694Z,26.10
2023-01-18T07:46:56.655Z,29.23
2023-01-18T07:49:27.146Z,29.80
2023-01-18T07:51:59.814Z,30.80
2023-01-18T07:54:29.757Z,22.53
2023-01-18T07:56:59.773Z,27.07
2023-01-18T07:59:31.042Z,26.80
2023-01-18T08:02:01.183Z,25.07
2023-01-18T08:04:31.206Z,28.57
2023-01-18T08:07:04.102Z,26.93
2023-01-18T08:09:35.636Z,26.60
2023-01-18T08:12:08.018Z,27.90
2023-01-18T08:14:38.362Z,25.10
2023-01-18T08:17:09.094Z,24.47
2023-01-18T08:19:39.580Z,30.90
2023-01-18T08:22:12.508Z,21.80
2023-01-18T08:24:43.157Z,21.50
2023-01-18T08:27:13.231Z,17.80
2023-01-18T08:29:43.251Z,22.63
2023-01-18T08:32:13.269Z,22.33
2023-01-18T08:34:43.340Z,22.40
2023-01-18T08:37:17.009Z,20.73
2023-01-18T08:39:47.022Z,23.60
2023-01-18T08:42:17.010Z,30.73
2023-01-18T08:44:48.527Z,32.77
2023-01-18T08:47:18.895Z,36.30
2023-01-18T08:49:49.436Z,30.40
2023-01-18T08:52:21.967Z,27.33
2023-01-18T08:54:52.544Z,25.43
2023-01-18T08:57:23.286Z,26.53
2023-01-18T08:59:54.797Z,28.20
2023-01-18T09:02:24.852Z,25.23
2023-01-18T09:04:55.609Z,26.73
2023-01-18T09:07:28.260Z,21.00
2023-01-18T09:09:58.223Z,20.23
2023-01-18T09:12:28.345Z,24.13
2023-01-18T09:14:58.514Z,21.67
2023-01-18T09:17:28.532Z,21.20
2023-01-18T09:19:59.329Z,21.70
2023-01-18T09:22:31.870Z,19.10
2023-01-18T09:25:01.922Z,20.77
2023-01-18T09:27:31.913Z,17.13
2023-01-18T09:30:01.966Z,14.80
2023-01-18T09:32:31.941Z,15.37
2023-01-18T09:35:02.143Z,14.63
2023-01-18T09:37:34.752Z,16.43
2023-01-18T09:40:04.765Z,19.40
2023-01-18T09:42:44.683Z,14.73
2023-01-18T09:45:32.245Z,11.90
2023-01-18T09:48:08.344Z,20.23
2023-01-18T09:50:44.784Z,17.23
2023-01-18T09:53:41.073Z,14.17
2023-01-18T09:56:21.185Z,15.47
2023-01-18T09:59:11.821Z,15.37
2023-01-18T10:01:42.278Z,13.40
2023-01-18T10:04:25.201Z,12.93
2023-01-18T10:07:02.350Z,13.30
2023-01-18T10:09:43.233Z,12.67
2023-01-18T10:12:26.227Z,18.80
2023-01-18T10:15:02.662Z,12.87
2023-01-18T10:17:39.974Z,13.50
2023-01-18T10:20:19.292Z,14.33
2023-01-18T10:22:58.067Z,12.40
2023-01-18T10:25:41.834Z,12.13
2023-01-18T10:28:32.326Z,14.17
2023-01-18T10:31:25.507Z,14.80
2023-01-18T10:34:00.394Z,13.97
2023-01-18T10:36:39.589Z,12.23
2023-01-18T10:39:31.684Z,14.60
2023-01-18T10:42:10.141Z,20.37
2023-01-18T10:44:41.262Z,16.53
2023-01-18T10:47:12.112Z,13.37
2023-01-18T10:49:45.084Z,14.17
2023-01-18T10:52:27.832Z,18.50
2023-01-18T10:55:01.640Z,15.83
2023-01-18T10:57:40.429Z,16.50
2023-01-18T11:00:24.450Z,15.67
2023-01-18T11:02:58.079Z,12.73
2023-01-18T11:05:34.838Z,18.77
2023-01-18T11:08:18.974Z,14.20
2023-01-18T11:10:49.361Z,13.87
2023-01-18T11:13:37.610Z,13.37
2023-01-18T11:16:17.740Z,11.80
2023-01-18T11:19:06.312Z,15.97
2023-01-18T11:21:51.602Z,17.83
2023-01-18T11:24:27.558Z,15.60
2023-01-18T11:27:02.643Z,11.70
2023-01-18T11:29:39.697Z,16.07
2023-01-18T11:32:21.997Z,12.37
2023-01-18T11:34:56.027Z,13.27
2023-01-18T11:37:34.849Z,12.90
2023-01-18T11:40:29.391Z,15.67
2023-01-18T11:43:05.079Z,13.63
2023-01-18T11:45:45.646Z,16.27
2023-01-18T11:48:30.291Z,16.27
2023-01-18T11:51:09.680Z,23.37
2023-01-18T11:53:54.307Z,16.67
2023-01-18T11:56:39.922Z,12.23
2023-01-18T11:59:18.602Z,17.57
2023-01-18T12:02:22.792Z,16.87
2023-01-18T12:05:25.827Z,12.07
2023-01-18T12:08:14.679Z,14.70
2023-01-18T12:11:00.775Z,12.23
2023-01-18T12:13:42.091Z,17.70
2023-01-18T12:16:23.852Z,10.20
2023-01-18T12:19:33.148Z,15.90
2023-01-18T12:22:35.942Z,12.90
2023-01-18T12:25:24.143Z,14.10
2023-01-18T12:28:08.777Z,13.00
2023-01-18T12:30:55.761Z,10.33
2023-01-18T12:33:46.762Z,19.37
2023-01-18T12:36:39.921Z,11.07
2023-01-18T12:39:29.902Z,16.90
2023-01-18T12:42:07.192Z,19.17
2023-01-18T12:44:55.658Z,12.07
2023-01-18T12:47:40.415Z,14.30
2023-01-18T12:50:26.666Z,11.20
2023-01-18T12:53:06.771Z,10.93
2023-01-18T12:55:41.173Z,11.13
2023-01-18T12:58:22.357Z,12.03
2023-01-18T13:00:57.354Z,13.60
2023-01-18T13:03:34.449Z,11.73
2023-01-18T13:06:06.137Z,9.80
2023-01-18T13:08:45.500Z,12.57
2023-01-18T13:11:22.390Z,10.23
2023-01-18T13:14:07.128Z,15.03
2023-01-18T13:16:51.086Z,14.90
2023-01-18T13:19:29.327Z,12.60
2023-01-18T13:22:11.843Z,9.00
2023-01-18T13:25:16.221Z,12.50
2023-01-18T13:28:01.309Z,12.27
2023-01-18T13:30:35.034Z,13.07
2023-01-18T13:33:17.153Z,10.70
2023-01-18T13:35:57.713Z,14.43
2023-01-18T13:38:41.084Z,9.97
2023-01-18T13:41:17.005Z,11.20
2023-01-18T13:44:07.653Z,14.00
2023-01-18T13:46:39.604Z,17.27
2023-01-18T13:49:38.221Z,21.10
2023-01-18T13:52:35.628Z,9.90
2023-01-18T13:55:31.251Z,21.13
2023-01-18T13:58:04.291Z,11.80
2023-01-18T14:00:36.814Z,9.80
2023-01-18T14:03:17.740Z,14.37
2023-01-18T14:05:50.008Z,14.20
2023-01-18T14:08:27.702Z,7.27
2023-01-18T14:11:05.502Z,9.77
2023-01-18T14:14:08.365Z,12.20
2023-01-18T14:16:55.228Z,10.97
2023-01-18T14:19:27.537Z,10.97
2023-01-18T14:22:20.139Z,12.37
2023-01-18T14:25:27.363Z,11.70
2023-01-18T14:28:10.557Z,10.10
2023-01-18T14:30:48.624Z,8.00
2023-01-18T14:33:26.548Z,10.53
2023-01-18T14:36:01.119Z,9.40
2023-01-18T14:38:32.981Z,7.67
2023-01-18T14:41:08.608Z,10.17
2023-01-18T14:43:45.358Z,20.67
2023-01-18T14:46:25.618Z,6.97
2023-01-18T14:49:01.738Z,12.47
2023-01-18T14:51:32.700Z,9.70
2023-01-18T14:54:05.216Z,10.87
2023-01-18T14:56:43.625Z,11.93
2023-01-18T14:59:24.466Z,10.07
2023-01-18T15:02:00.775Z,7.37
2023-01-18T15:04:36.145Z,7.70
2023-01-18T15:07:13.735Z,9.20
2023-01-18T15:09:45.748Z,11.70
2023-01-18T15:12:25.332Z,9.60
2023-01-18T15:14:55.612Z,13.23
2023-01-18T15:17:29.303Z,11.97
2023-01-18T15:20:05.063Z,7.53
2023-01-18T15:22:40.613Z,7.23
2023-01-18T15:25:22.521Z,9.40
2023-01-18T15:27:54.878Z,9.63
2023-01-18T15:30:27.157Z,9.57
2023-01-18T15:33:02.303Z,6.83
2023-01-18T15:35:33.502Z,8.97
2023-01-18T15:38:05.142Z,8.83
2023-01-18T15:40:35.890Z,10.00
2023-01-18T15:43:11.917Z,8.73
2023-01-18T15:45:50.965Z,8.00
2023-01-18T15:48:27.204Z,9.40
2023-01-18T15:51:06.884Z,9.30
2023-01-18T15:53:41.497Z,8.67
2023-01-18T15:56:19.607Z,9.03
2023-01-18T15:58:55.695Z,11.10
2023-01-18T16:01:29.452Z,9.63
2023-01-18T16:04:05.664Z,8.30
2023-01-18T16:06:40.382Z,9.90
2023-01-18T16:09:23.192Z,21.80
2023-01-18T16:11:57.096Z,21.33
2023-01-18T16:14:36.495Z,14.10
2023-01-18T16:17:10.168Z,12.03
2023-01-18T16:19:46.226Z,10.77
2023-01-18T16:22:24.535Z,12.13
2023-01-18T16:24:59.830Z,14.80
2023-01-18T16:27:34.028Z,14.07
2023-01-18T16:30:20.272Z,9.67
2023-01-18T16:32:51.022Z,9.40
2023-01-18T16:35:26.010Z,18.10
2023-01-18T16:37:57.992Z,6.67
2023-01-18T16:40:28.236Z,7.53
2023-01-18T16:43:02.563Z,8.80
2023-01-18T16:45:36.589Z,10.60
2023-01-18T16:48:08.994Z,10.97
2023-01-18T16:50:41.717Z,12.00
2023-01-18T16:53:11.845Z,11.37
2023-01-18T16:55:44.018Z,9.47
2023-01-18T16:58:16.577Z,10.80
2023-01-18T17:00:57.546Z,10.57
2023-01-18T17:03:28.586Z,10.53
2023-01-18T17:06:01.852Z,8.83
2023-01-18T17:08:32.517Z,13.43
2023-01-18T17:11:02.540Z,12.07
2023-01-18T17:13:32.515Z,11.40
2023-01-18T17:16:02.631Z,8.50
2023-01-18T17:18:32.589Z,13.20
2023-01-18T17:21:05.210Z,11.17
2023-01-18T17:23:35.183Z,11.73
2023-01-18T17:26:05.449Z,8.73
2023-01-18T17:28:35.478Z,13.53
2023-01-18T17:31:05.508Z,8.47
2023-01-18T17:33:38.593Z,12.43
2023-01-18T17:36:12.055Z,12.57
2023-01-18T17:38:42.042Z,9.70
2023-01-18T17:41:26.768Z,10.90
2023-01-18T17:43:58.083Z,14.33
2023-01-18T17:46:28.189Z,11.47
2023-01-18T17:48:58.243Z,9.63
2023-01-18T17:51:32.175Z,11.47
2023-01-18T17:54:03.678Z,12.63
2023-01-18T17:56:36.711Z,12.80
2023-01-18T17:59:10.653Z,10.37
2023-01-18T18:01:40.854Z,7.97
2023-01-18T18:04:10.981Z,9.77
2023-01-18T18:06:53.750Z,14.50
2023-01-18T18:09:24.672Z,14.07
2023-01-18T18:11:55.434Z,11.20
2023-01-18T18:14:25.650Z,9.80
2023-01-18T18:16:55.761Z,15.47
2023-01-18T18:19:25.904Z,17.37
2023-01-18T18:21:59.158Z,20.70
2023-01-18T18:24:29.704Z,19.13
2023-01-18T18:27:01.497Z,18.97
2023-01-18T18:29:32.191Z,18.10
2023-01-18T18:32:02.232Z,21.93
2023-01-18T18:34:32.304Z,20.30
2023-01-18T18:37:06.091Z,15.43
2023-01-18T18:39:36.712Z,18.53
2023-01-18T18:42:07.016Z,20.50
2023-01-18T18:44:36.969Z,16.80
2023-01-18T18:47:10.093Z,20.87
2023-01-18T18:49:40.495Z,18.20
2023-01-18T18:52:13.135Z,22.40
2023-01-18T18:54:43.141Z,22.47
2023-01-18T18:57:13.131Z,23.07
2023-01-18T18:59:43.109Z,17.60
2023-01-18T19:02:16.452Z,23.90
2023-01-18T19:04:46.466Z,23.17
2023-01-18T19:07:19.715Z,29.33
2023-01-18T19:09:49.714Z,33.77
2023-01-18T19:12:19.760Z,22.23
2023-01-18T19:14:49.857Z,30.10
2023-01-18T19:17:29.813Z,24.73
2023-01-18T19:20:01.219Z,30.50
2023-01-18T19:22:33.899Z,24.63
2023-01-18T19:25:04.234Z,21.07
2023-01-18T19:27:34.342Z,22.97
2023-01-18T19:30:05.453Z,28.17
2023-01-18T19:32:35.571Z,31.03
2023-01-18T19:35:05.734Z,27.73
2023-01-18T19:37:38.715Z,22.23
2023-01-18T19:40:11.790Z,24.63
2023-01-18T19:42:44.450Z,23.07
2023-01-18T19:45:23.144Z,22.40
2023-01-18T19:47:58.373Z,23.97
2023-01-18T19:50:31.830Z,28.10
2023-01-18T19:53:04.609Z,24.40
2023-01-18T19:55:36.497Z,29.77
2023-01-18T19:58:06.642Z,27.53
2023-01-18T20:00:37.072Z,28.73
2023-01-18T20:03:07.263Z,21.90
2023-01-18T20:05:37.267Z,25.30
2023-01-18T20:08:09.942Z,24.53
2023-01-18T20:10:40.081Z,24.93
2023-01-18T20:13:10.106Z,27.40
2023-01-18T20:15:45.448Z,24.93
2023-01-18T20:18:15.494Z,12.00
2023-01-18T20:20:45.614Z,20.57
2023-01-18T20:23:18.198Z,16.70
2023-01-18T20:25:48.208Z,20.83
2023-01-18T20:28:18.213Z,23.00
2023-01-18T20:30:51.853Z,22.77
2023-01-18T20:33:22.226Z,26.67
2023-01-18T20:35:52.242Z,22.07
2023-01-18T20:38:24.858Z,32.60
2023-01-18T20:40:54.915Z,29.50
2023-01-18T20:43:24.915Z,22.20
2023-01-18T20:46:03.367Z,22.63
2023-01-18T20:48:35.103Z,26.57
2023-01-18T20:51:07.516Z,27.43
2023-01-18T20:53:40.649Z,22.77
2023-01-18T20:56:28.414Z,34.07
2023-01-18T20:58:59.641Z,29.83
2023-01-18T21:01:32.722Z,28.77
2023-01-18T21:04:05.507Z,24.33
2023-01-18T21:06:36.199Z,26.47
2023-01-18T21:09:08.797Z,28.70
2023-01-18T21:11:38.903Z,24.80
2023-01-18T21:14:08.918Z,23.60
2023-01-18T21:16:38.917Z,33.50
2023-01-18T21:19:10.117Z,29.87
2023-01-18T21:21:40.193Z,23.77
2023-01-18T21:24:13.607Z,18.13
2023-01-18T21:26:43.589Z,21.13
2023-01-18T21:29:13.610Z,22.63
2023-01-18T21:31:43.690Z,19.77
2023-01-18T21:34:14.319Z,19.37
2023-01-18T21:36:44.344Z,24.17
2023-01-18T21:39:18.505Z,26.80
2023-01-18T21:42:01.262Z,29.87
2023-01-18T21:44:43.826Z,20.67
2023-01-18T21:47:13.798Z,24.37
2023-01-18T21:50:17.804Z,22.37
2023-01-18T21:53:02.665Z,20.03
2023-01-18T21:55:35.697Z,32.20
2023-01-18T21:58:18.161Z,29.03
2023-01-18T22:00:48.237Z,30.40
2023-01-18T22:03:18.640Z,22.33
2023-01-18T22:05:46.095Z,26.43
2023-01-18T22:08:16.107Z,23.93
2023-01-18T22:10:51.492Z,22.17
2023-01-18T22:13:21.565Z,22.17
2023-01-18T22:15:51.501Z,21.23
2023-01-18T22:18:21.465Z,22.50
2023-01-18T22:20:59.294Z,18.73
2023-01-18T22:23:29.437Z,27.23
2023-01-18T22:26:02.066Z,17.63
2023-01-18T22:28:32.130Z,20.87
2023-01-18T22:31:06.594Z,33.70
2023-01-18T22:33:36.850Z,17.07
2023-01-18T22:36:07.973Z,24.70
2023-01-18T22:38:38.591Z,23.13
2023-01-18T22:41:14.378Z,19.57
2023-01-18T22:43:45.545Z,28.80
2023-01-18T22:46:18.745Z,21.00
2023-01-18T22:48:49.774Z,18.77
2023-01-18T22:51:24.040Z,21.10
2023-01-18T22:53:56.348Z,19.87
2023-01-18T22:56:29.037Z,17.23
2023-01-18T22:59:00.094Z,20.23
2023-01-18T23:01:33.572Z,22.70
2023-01-18T23:04:06.425Z,22.80
2023-01-18T23:06:42.463Z,25.53
2023-01-18T23:09:13.246Z,19.67
2023-01-18T23:11:47.649Z,30.30
2023-01-18T23:14:30.461Z,26.70
2023-01-18T23:17:13.111Z,22.03
2023-01-18T23:19:43.147Z,24.60
2023-01-18T23:22:13.176Z,29.10
2023-01-18T23:24:43.437Z,32.90
2023-01-18T23:27:16.001Z,23.10
2023-01-18T23:29:46.740Z,28.10
2023-01-18T23:32:16.701Z,30.10
2023-01-18T23:34:47.901Z,18.43
2023-01-18T23:37:17.871Z,25.17
2023-01-18T23:40:00.377Z,26.70
2023-01-18T23:42:45.492Z,21.33
2023-01-18T23:45:29.133Z,22.23
2023-01-18T23:48:12.337Z,22.60
2023-01-18T23:50:54.834Z,22.80
2023-01-18T23:53:37.386Z,28.30
2023-01-18T23:56:07.649Z,23.80
2023-01-18T23:58:40.875Z,27.60
